sensor_id;sensor_type;location;lat;lon;timestamp;P1;durP1;ratioP1;P2;durP2;ratioP2
12163;SDS011;6145;50.192;10.064;2022-08-21T00:01:32;2.03;;;1.93;;
12163;SDS011;6145;50.192;10.064;2022-08-21T00:04:03;2.50;;;2.30;;
12163;SDS011;6145;50.192;10.064;2022-08-21T00:06:30;2.00;;;1.90;;
12163;SDS011;6145;50.192;10.064;2022-08-21T00:08:58;2.40;;;2.20;;
12163;SDS011;6145;50.192;10.064;2022-08-21T00:11:26;2.30;;;2.20;;
12163;SDS011;6145;50.192;10.064;2022-08-21T00:13:53;2.53;;;2.20;;
12163;SDS011;6145;50.192;10.064;2022-08-21T00:16:21;2.53;;;1.90;;
12163;SDS011;6145;50.192;10.064;2022-08-21T00:18:48;2.30;;;2.10;;
12163;SDS011;6145;50.192;10.064;2022-08-21T00:21:15;2.17;;;2.07;;
12163;SDS011;6145;50.192;10.064;2022-08-21T00:23:42;2.43;;;2.23;;
12163;SDS011;6145;50.192;10.064;2022-08-21T00:26:09;2.50;;;2.30;;
12163;SDS011;6145;50.192;10.064;2022-08-21T00:28:38;2.57;;;1.90;;
12163;SDS011;6145;50.192;10.064;2022-08-21T00:31:04;2.33;;;2.13;;
12163;SDS011;6145;50.192;10.064;2022-08-21T00:33:32;2.70;;;2.50;;
12163;SDS011;6145;50.192;10.064;2022-08-21T00:35:59;2.73;;;2.53;;
12163;SDS011;6145;50.192;10.064;2022-08-21T00:38:26;2.20;;;2.10;;
12163;SDS011;6145;50.192;10.064;2022-08-21T00:40:53;2.17;;;2.07;;
12163;SDS011;6145;50.192;10.064;2022-08-21T00:43:25;2.40;;;2.20;;
12163;SDS011;6145;50.192;10.064;2022-08-21T00:45:55;2.40;;;2.30;;
12163;SDS011;6145;50.192;10.064;2022-08-21T00:48:23;2.20;;;2.10;;
12163;SDS011;6145;50.192;10.064;2022-08-21T00:50:52;2.40;;;2.20;;
12163;SDS011;6145;50.192;10.064;2022-08-21T00:53:22;2.47;;;2.30;;
12163;SDS011;6145;50.192;10.064;2022-08-21T00:55:51;2.70;;;2.50;;
12163;SDS011;6145;50.192;10.064;2022-08-21T00:58:18;2.50;;;2.37;;
12163;SDS011;6145;50.192;10.064;2022-08-21T01:00:46;2.27;;;2.10;;
12163;SDS011;6145;50.192;10.064;2022-08-21T01:03:16;2.50;;;2.30;;
12163;SDS011;6145;50.192;10.064;2022-08-21T01:05:45;2.23;;;2.03;;
12163;SDS011;6145;50.192;10.064;2022-08-21T01:08:12;2.20;;;2.00;;
12163;SDS011;6145;50.192;10.064;2022-08-21T01:10:41;2.27;;;2.17;;
12163;SDS011;6145;50.192;10.064;2022-08-21T01:13:10;2.20;;;2.10;;
12163;SDS011;6145;50.192;10.064;2022-08-21T01:15:40;2.17;;;2.07;;
12163;SDS011;6145;50.192;10.064;2022-08-21T01:18:10;2.33;;;2.17;;
12163;SDS011;6145;50.192;10.064;2022-08-21T01:20:41;2.20;;;2.10;;
12163;SDS011;6145;50.192;10.064;2022-08-21T01:23:11;2.47;;;2.27;;
12163;SDS011;6145;50.192;10.064;2022-08-21T01:25:38;2.20;;;2.00;;
12163;SDS011;6145;50.192;10.064;2022-08-21T01:28:06;2.50;;;2.30;;
12163;SDS011;6145;50.192;10.064;2022-08-21T01:30:37;2.50;;;2.30;;
12163;SDS011;6145;50.192;10.064;2022-08-21T01:33:06;2.47;;;2.27;;
12163;SDS011;6145;50.192;10.064;2022-08-21T01:35:33;2.37;;;2.17;;
12163;SDS011;6145;50.192;10.064;2022-08-21T01:38:00;2.60;;;2.40;;
12163;SDS011;6145;50.192;10.064;2022-08-21T01:40:28;2.07;;;1.97;;
12163;SDS011;6145;50.192;10.064;2022-08-21T01:42:55;2.17;;;2.07;;
12163;SDS011;6145;50.192;10.064;2022-08-21T01:45:22;2.87;;;2.67;;
12163;SDS011;6145;50.192;10.064;2022-08-21T01:47:49;2.70;;;2.50;;
12163;SDS011;6145;50.192;10.064;2022-08-21T01:50:17;2.30;;;2.20;;
12163;SDS011;6145;50.192;10.064;2022-08-21T01:52:45;3.10;;;2.90;;
12163;SDS011;6145;50.192;10.064;2022-08-21T01:55:13;2.97;;;2.67;;
12163;SDS011;6145;50.192;10.064;2022-08-21T01:57:42;2.70;;;2.50;;
12163;SDS011;6145;50.192;10.064;2022-08-21T02:00:10;2.87;;;2.67;;
12163;SDS011;6145;50.192;10.064;2022-08-21T02:02:40;2.50;;;2.30;;
12163;SDS011;6145;50.192;10.064;2022-08-21T02:05:07;2.43;;;2.23;;
12163;SDS011;6145;50.192;10.064;2022-08-21T02:07:36;2.17;;;2.07;;
12163;SDS011;6145;50.192;10.064;2022-08-21T02:10:05;2.20;;;2.10;;
12163;SDS011;6145;50.192;10.064;2022-08-21T02:12:34;2.57;;;2.37;;
12163;SDS011;6145;50.192;10.064;2022-08-21T02:15:02;2.20;;;2.07;;
12163;SDS011;6145;50.192;10.064;2022-08-21T02:17:36;2.30;;;2.20;;
12163;SDS011;6145;50.192;10.064;2022-08-21T02:20:05;2.20;;;2.10;;
12163;SDS011;6145;50.192;10.064;2022-08-21T02:22:32;2.50;;;2.30;;
12163;SDS011;6145;50.192;10.064;2022-08-21T02:24:59;2.17;;;2.00;;
12163;SDS011;6145;50.192;10.064;2022-08-21T02:27:26;2.40;;;2.23;;
12163;SDS011;6145;50.192;10.064;2022-08-21T02:29:53;2.33;;;2.23;;
12163;SDS011;6145;50.192;10.064;2022-08-21T02:32:23;2.60;;;2.40;;
12163;SDS011;6145;50.192;10.064;2022-08-21T02:34:50;2.10;;;2.00;;
12163;SDS011;6145;50.192;10.064;2022-08-21T02:37:17;2.50;;;2.30;;
12163;SDS011;6145;50.192;10.064;2022-08-21T02:39:44;2.30;;;2.20;;
12163;SDS011;6145;50.192;10.064;2022-08-21T02:42:10;2.63;;;2.43;;
12163;SDS011;6145;50.192;10.064;2022-08-21T02:44:37;2.17;;;2.07;;
12163;SDS011;6145;50.192;10.064;2022-08-21T02:47:04;2.00;;;1.90;;
12163;SDS011;6145;50.192;10.064;2022-08-21T02:49:32;2.50;;;2.30;;
12163;SDS011;6145;50.192;10.064;2022-08-21T02:51:59;2.30;;;2.20;;
12163;SDS011;6145;50.192;10.064;2022-08-21T02:54:26;2.20;;;2.10;;
12163;SDS011;6145;50.192;10.064;2022-08-21T02:56:53;2.47;;;2.27;;
12163;SDS011;6145;50.192;10.064;2022-08-21T02:59:19;2.50;;;2.30;;
12163;SDS011;6145;50.192;10.064;2022-08-21T03:01:46;2.27;;;2.17;;
12163;SDS011;6145;50.192;10.064;2022-08-21T03:04:13;2.30;;;2.20;;
12163;SDS011;6145;50.192;10.064;2022-08-21T03:06:41;2.30;;;2.10;;
12163;SDS011;6145;50.192;10.064;2022-08-21T03:09:09;2.27;;;2.17;;
12163;SDS011;6145;50.192;10.064;2022-08-21T03:11:35;2.60;;;2.40;;
12163;SDS011;6145;50.192;10.064;2022-08-21T03:14:02;2.40;;;2.20;;
12163;SDS011;6145;50.192;10.064;2022-08-21T03:16:30;2.23;;;2.10;;
12163;SDS011;6145;50.192;10.064;2022-08-21T03:18:57;2.60;;;2.40;;
12163;SDS011;6145;50.192;10.064;2022-08-21T03:21:24;2.47;;;2.27;;
12163;SDS011;6145;50.192;10.064;2022-08-21T03:23:52;2.33;;;2.23;;
12163;SDS011;6145;50.192;10.064;2022-08-21T03:26:20;2.40;;;2.23;;
12163;SDS011;6145;50.192;10.064;2022-08-21T03:28:46;2.20;;;2.10;;
12163;SDS011;6145;50.192;10.064;2022-08-21T03:31:13;2.20;;;2.10;;
12163;SDS011;6145;50.192;10.064;2022-08-21T03:33:40;2.40;;;2.20;;
12163;SDS011;6145;50.192;10.064;2022-08-21T03:36:07;2.20;;;2.00;;
12163;SDS011;6145;50.192;10.064;2022-08-21T03:38:35;2.37;;;2.17;;
12163;SDS011;6145;50.192;10.064;2022-08-21T03:41:05;2.20;;;2.10;;
12163;SDS011;6145;50.192;10.064;2022-08-21T03:43:32;2.50;;;2.30;;
12163;SDS011;6145;50.192;10.064;2022-08-21T03:46:00;2.30;;;2.17;;
12163;SDS011;6145;50.192;10.064;2022-08-21T03:48:28;2.70;;;2.50;;
12163;SDS011;6145;50.192;10.064;2022-08-21T03:50:55;2.23;;;2.10;;
12163;SDS011;6145;50.192;10.064;2022-08-21T03:53:22;2.20;;;2.10;;
12163;SDS011;6145;50.192;10.064;2022-08-21T03:55:50;2.30;;;2.20;;
12163;SDS011;6145;50.192;10.064;2022-08-21T03:58:20;2.30;;;2.10;;
12163;SDS011;6145;50.192;10.064;2022-08-21T04:00:49;2.70;;;2.50;;
12163;SDS011;6145;50.192;10.064;2022-08-21T04:03:17;2.73;;;2.57;;
12163;SDS011;6145;50.192;10.064;2022-08-21T04:05:45;2.10;;;2.00;;
12163;SDS011;6145;50.192;10.064;2022-08-21T04:08:12;2.70;;;2.50;;
12163;SDS011;6145;50.192;10.064;2022-08-21T04:10:43;2.37;;;2.27;;
12163;SDS011;6145;50.192;10.064;2022-08-21T04:13:12;2.50;;;2.30;;
12163;SDS011;6145;50.192;10.064;2022-08-21T04:15:41;2.43;;;2.33;;
12163;SDS011;6145;50.192;10.064;2022-08-21T04:18:10;2.63;;;2.43;;
12163;SDS011;6145;50.192;10.064;2022-08-21T04:20:37;2.33;;;2.13;;
12163;SDS011;6145;50.192;10.064;2022-08-21T04:23:05;2.30;;;2.20;;
12163;SDS011;6145;50.192;10.064;2022-08-21T04:25:32;2.27;;;2.17;;
12163;SDS011;6145;50.192;10.064;2022-08-21T04:28:00;2.33;;;2.20;;
12163;SDS011;6145;50.192;10.064;2022-08-21T04:30:27;2.40;;;2.20;;
12163;SDS011;6145;50.192;10.064;2022-08-21T04:32:56;2.60;;;2.40;;
12163;SDS011;6145;50.192;10.064;2022-08-21T04:35:24;2.30;;;2.20;;
12163;SDS011;6145;50.192;10.064;2022-08-21T04:37:52;2.47;;;2.27;;
12163;SDS011;6145;50.192;10.064;2022-08-21T04:40:21;2.13;;;2.03;;
12163;SDS011;6145;50.192;10.064;2022-08-21T04:42:50;2.27;;;2.13;;
12163;SDS011;6145;50.192;10.064;2022-08-21T04:45:22;2.30;;;2.20;;
12163;SDS011;6145;50.192;10.064;2022-08-21T04:47:51;2.47;;;2.30;;
12163;SDS011;6145;50.192;10.064;2022-08-21T04:50:20;2.37;;;2.27;;
12163;SDS011;6145;50.192;10.064;2022-08-21T04:52:50;2.60;;;2.40;;
12163;SDS011;6145;50.192;10.064;2022-08-21T04:55:18;2.77;;;2.57;;
12163;SDS011;6145;50.192;10.064;2022-08-21T04:57:46;2.60;;;2.40;;
12163;SDS011;6145;50.192;10.064;2022-08-21T05:00:14;2.40;;;2.20;;
12163;SDS011;6145;50.192;10.064;2022-08-21T05:02:43;2.17;;;2.03;;
12163;SDS011;6145;50.192;10.064;2022-08-21T05:05:12;2.27;;;2.07;;
12163;SDS011;6145;50.192;10.064;2022-08-21T05:07:40;2.40;;;2.20;;
12163;SDS011;6145;50.192;10.064;2022-08-21T05:10:08;2.50;;;2.30;;
12163;SDS011;6145;50.192;10.064;2022-08-21T05:12:36;2.63;;;2.43;;
12163;SDS011;6145;50.192;10.064;2022-08-21T05:15:03;2.30;;;2.10;;
12163;SDS011;6145;50.192;10.064;2022-08-21T05:17:30;2.30;;;2.20;;
12163;SDS011;6145;50.192;10.064;2022-08-21T05:19:57;2.43;;;2.30;;
12163;SDS011;6145;50.192;10.064;2022-08-21T05:22:24;2.23;;;2.03;;
12163;SDS011;6145;50.192;10.064;2022-08-21T05:24:52;2.40;;;2.20;;
12163;SDS011;6145;50.192;10.064;2022-08-21T05:27:19;2.00;;;1.90;;
12163;SDS011;6145;50.192;10.064;2022-08-21T05:29:46;2.40;;;2.30;;
12163;SDS011;6145;50.192;10.064;2022-08-21T05:32:13;2.00;;;1.90;;
12163;SDS011;6145;50.192;10.064;2022-08-21T05:34:40;1.97;;;1.87;;
12163;SDS011;6145;50.192;10.064;2022-08-21T05:37:07;2.20;;;2.00;;
12163;SDS011;6145;50.192;10.064;2022-08-21T05:39:36;2.30;;;2.20;;
12163;SDS011;6145;50.192;10.064;2022-08-21T05:42:05;2.50;;;2.30;;
12163;SDS011;6145;50.192;10.064;2022-08-21T05:44:32;2.30;;;2.20;;
12163;SDS011;6145;50.192;10.064;2022-08-21T05:47:01;2.10;;;2.00;;
12163;SDS011;6145;50.192;10.064;2022-08-21T05:49:30;2.60;;;2.40;;
12163;SDS011;6145;50.192;10.064;2022-08-21T05:52:00;2.40;;;2.30;;
12163;SDS011;6145;50.192;10.064;2022-08-21T05:54:28;2.60;;;2.40;;
12163;SDS011;6145;50.192;10.064;2022-08-21T05:56:55;2.37;;;2.27;;
12163;SDS011;6145;50.192;10.064;2022-08-21T05:59:24;2.63;;;2.43;;
12163;SDS011;6145;50.192;10.064;2022-08-21T06:01:51;2.43;;;2.23;;
12163;SDS011;6145;50.192;10.064;2022-08-21T06:04:18;2.43;;;2.23;;
12163;SDS011;6145;50.192;10.064;2022-08-21T06:06:45;2.80;;;2.60;;
12163;SDS011;6145;50.192;10.064;2022-08-21T06:09:13;2.57;;;2.37;;
12163;SDS011;6145;50.192;10.064;2022-08-21T06:11:39;2.70;;;2.50;;
12163;SDS011;6145;50.192;10.064;2022-08-21T06:14:06;3.33;;;3.03;;
12163;SDS011;6145;50.192;10.064;2022-08-21T06:16:34;2.90;;;2.70;;
12163;SDS011;6145;50.192;10.064;2022-08-21T06:19:01;2.80;;;2.60;;
12163;SDS011;6145;50.192;10.064;2022-08-21T06:21:28;2.87;;;2.67;;
12163;SDS011;6145;50.192;10.064;2022-08-21T06:23:55;2.80;;;2.60;;
12163;SDS011;6145;50.192;10.064;2022-08-21T06:26:22;2.80;;;2.60;;
12163;SDS011;6145;50.192;10.064;2022-08-21T06:28:49;2.83;;;2.63;;
12163;SDS011;6145;50.192;10.064;2022-08-21T06:31:17;2.90;;;2.70;;
12163;SDS011;6145;50.192;10.064;2022-08-21T06:33:46;2.73;;;2.53;;
12163;SDS011;6145;50.192;10.064;2022-08-21T06:36:14;2.80;;;2.60;;
12163;SDS011;6145;50.192;10.064;2022-08-21T06:38:41;3.10;;;2.90;;
12163;SDS011;6145;50.192;10.064;2022-08-21T06:41:08;3.37;;;3.10;;
12163;SDS011;6145;50.192;10.064;2022-08-21T06:43:35;3.07;;;2.80;;
12163;SDS011;6145;50.192;10.064;2022-08-21T06:46:02;2.90;;;2.70;;
12163;SDS011;6145;50.192;10.064;2022-08-21T06:48:29;3.37;;;3.17;;
12163;SDS011;6145;50.192;10.064;2022-08-21T06:50:59;3.20;;;3.00;;
12163;SDS011;6145;50.192;10.064;2022-08-21T06:53:26;3.30;;;3.10;;
12163;SDS011;6145;50.192;10.064;2022-08-21T06:55:53;3.47;;;3.17;;
12163;SDS011;6145;50.192;10.064;2022-08-21T06:58:20;3.37;;;3.17;;
12163;SDS011;6145;50.192;10.064;2022-08-21T07:00:48;3.20;;;3.00;;
12163;SDS011;6145;50.192;10.064;2022-08-21T07:03:18;2.97;;;2.77;;
12163;SDS011;6145;50.192;10.064;2022-08-21T07:05:46;2.97;;;2.77;;
12163;SDS011;6145;50.192;10.064;2022-08-21T07:08:14;3.17;;;2.97;;
12163;SDS011;6145;50.192;10.064;2022-08-21T07:10:41;3.23;;;3.03;;
12163;SDS011;6145;50.192;10.064;2022-08-21T07:13:08;3.33;;;2.80;;
12163;SDS011;6145;50.192;10.064;2022-08-21T07:15:35;3.20;;;3.00;;
12163;SDS011;6145;50.192;10.064;2022-08-21T07:18:02;3.07;;;2.87;;
12163;SDS011;6145;50.192;10.064;2022-08-21T07:20:32;3.00;;;2.80;;
12163;SDS011;6145;50.192;10.064;2022-08-21T07:23:00;3.33;;;3.13;;
12163;SDS011;6145;50.192;10.064;2022-08-21T07:25:36;2.97;;;2.78;;
12163;SDS011;6145;50.192;10.064;2022-08-21T07:28:03;3.40;;;3.10;;
12163;SDS011;6145;50.192;10.064;2022-08-21T07:30:29;2.88;;;2.67;;
12163;SDS011;6145;50.192;10.064;2022-08-21T07:32:57;2.90;;;2.70;;
12163;SDS011;6145;50.192;10.064;2022-08-21T07:35:24;2.90;;;2.70;;
12163;SDS011;6145;50.192;10.064;2022-08-21T07:37:52;3.50;;;3.30;;
12163;SDS011;6145;50.192;10.064;2022-08-21T07:40:19;3.53;;;3.33;;
12163;SDS011;6145;50.192;10.064;2022-08-21T07:42:48;3.33;;;3.10;;
12163;SDS011;6145;50.192;10.064;2022-08-21T07:45:17;3.20;;;3.00;;
12163;SDS011;6145;50.192;10.064;2022-08-21T07:47:45;3.22;;;3.03;;
12163;SDS011;6145;50.192;10.064;2022-08-21T07:50:12;3.20;;;2.85;;
12163;SDS011;6145;50.192;10.064;2022-08-21T07:52:40;2.90;;;2.70;;
12163;SDS011;6145;50.192;10.064;2022-08-21T07:55:08;2.88;;;2.67;;
12163;SDS011;6145;50.192;10.064;2022-08-21T07:57:35;2.83;;;2.63;;
12163;SDS011;6145;50.192;10.064;2022-08-21T08:00:04;2.90;;;2.70;;
12163;SDS011;6145;50.192;10.064;2022-08-21T08:02:34;2.72;;;2.53;;
12163;SDS011;6145;50.192;10.064;2022-08-21T08:05:01;2.70;;;2.50;;
12163;SDS011;6145;50.192;10.064;2022-08-21T08:07:29;2.53;;;2.35;;
12163;SDS011;6145;50.192;10.064;2022-08-21T08:09:56;2.75;;;2.55;;
12163;SDS011;6145;50.192;10.064;2022-08-21T08:12:23;2.78;;;2.58;;
12163;SDS011;6145;50.192;10.064;2022-08-21T08:14:54;2.78;;;2.58;;
12163;SDS011;6145;50.192;10.064;2022-08-21T08:17:23;2.60;;;2.40;;
12163;SDS011;6145;50.192;10.064;2022-08-21T08:19:58;2.63;;;2.40;;
12163;SDS011;6145;50.192;10.064;2022-08-21T08:22:25;3.13;;;2.78;;
12163;SDS011;6145;50.192;10.064;2022-08-21T08:24:53;3.38;;;2.60;;
12163;SDS011;6145;50.192;10.064;2022-08-21T08:27:20;2.35;;;2.15;;
12163;SDS011;6145;50.192;10.064;2022-08-21T08:29:48;3.00;;;2.70;;
12163;SDS011;6145;50.192;10.064;2022-08-21T08:32:16;2.60;;;2.40;;
12163;SDS011;6145;50.192;10.064;2022-08-21T08:34:44;2.78;;;2.13;;
12163;SDS011;6145;50.192;10.064;2022-08-21T08:37:13;2.60;;;2.40;;
12163;SDS011;6145;50.192;10.064;2022-08-21T08:39:41;2.60;;;2.40;;
12163;SDS011;6145;50.192;10.064;2022-08-21T08:42:09;2.85;;;2.65;;
12163;SDS011;6145;50.192;10.064;2022-08-21T08:44:39;2.70;;;2.50;;
12163;SDS011;6145;50.192;10.064;2022-08-21T08:47:07;3.00;;;2.80;;
12163;SDS011;6145;50.192;10.064;2022-08-21T08:49:37;3.08;;;2.78;;
12163;SDS011;6145;50.192;10.064;2022-08-21T08:52:11;2.90;;;2.70;;
12163;SDS011;6145;50.192;10.064;2022-08-21T08:54:47;2.95;;;2.75;;
12163;SDS011;6145;50.192;10.064;2022-08-21T08:57:18;2.67;;;2.47;;
12163;SDS011;6145;50.192;10.064;2022-08-21T08:59:49;2.95;;;2.75;;
12163;SDS011;6145;50.192;10.064;2022-08-21T09:02:18;3.10;;;2.90;;
12163;SDS011;6145;50.192;10.064;2022-08-21T09:04:47;2.83;;;2.63;;
12163;SDS011;6145;50.192;10.064;2022-08-21T09:07:19;4.95;;;3.00;;
12163;SDS011;6145;50.192;10.064;2022-08-21T09:10:04;3.15;;;2.85;;
12163;SDS011;6145;50.192;10.064;2022-08-21T09:12:39;3.38;;;3.08;;
12163;SDS011;6145;50.192;10.064;2022-08-21T09:15:15;3.58;;;2.85;;
12163;SDS011;6145;50.192;10.064;2022-08-21T09:17:56;3.10;;;2.90;;
12163;SDS011;6145;50.192;10.064;2022-08-21T09:20:36;3.13;;;2.83;;
12163;SDS011;6145;50.192;10.064;2022-08-21T09:23:08;3.15;;;2.92;;
12163;SDS011;6145;50.192;10.064;2022-08-21T09:25:46;3.25;;;2.92;;
12163;SDS011;6145;50.192;10.064;2022-08-21T09:28:21;3.13;;;2.90;;
12163;SDS011;6145;50.192;10.064;2022-08-21T09:30:48;3.53;;;3.22;;
12163;SDS011;6145;50.192;10.064;2022-08-21T09:33:16;3.25;;;2.95;;
12163;SDS011;6145;50.192;10.064;2022-08-21T09:35:53;3.33;;;3.10;;
12163;SDS011;6145;50.192;10.064;2022-08-21T09:38:28;3.20;;;2.90;;
12163;SDS011;6145;50.192;10.064;2022-08-21T09:40:59;3.05;;;2.85;;
12163;SDS011;6145;50.192;10.064;2022-08-21T09:43:28;2.88;;;2.67;;
12163;SDS011;6145;50.192;10.064;2022-08-21T09:46:07;3.42;;;3.10;;
12163;SDS011;6145;50.192;10.064;2022-08-21T09:48:40;3.17;;;2.95;;
12163;SDS011;6145;50.192;10.064;2022-08-21T09:51:10;2.72;;;2.53;;
12163;SDS011;6145;50.192;10.064;2022-08-21T09:53:42;3.28;;;2.97;;
12163;SDS011;6145;50.192;10.064;2022-08-21T09:56:19;3.08;;;2.65;;
12163;SDS011;6145;50.192;10.064;2022-08-21T09:59:12;4.18;;;2.80;;
12163;SDS011;6145;50.192;10.064;2022-08-21T10:01:42;3.10;;;2.80;;
12163;SDS011;6145;50.192;10.064;2022-08-21T10:04:10;3.03;;;2.83;;
12163;SDS011;6145;50.192;10.064;2022-08-21T10:06:37;2.78;;;2.58;;
12163;SDS011;6145;50.192;10.064;2022-08-21T10:09:06;3.13;;;2.83;;
12163;SDS011;6145;50.192;10.064;2022-08-21T10:11:35;3.00;;;2.80;;
12163;SDS011;6145;50.192;10.064;2022-08-21T10:14:06;3.30;;;2.92;;
12163;SDS011;6145;50.192;10.064;2022-08-21T10:16:42;3.75;;;3.45;;
12163;SDS011;6145;50.192;10.064;2022-08-21T10:19:21;3.20;;;2.88;;
12163;SDS011;6145;50.192;10.064;2022-08-21T10:22:07;4.30;;;2.97;;
12163;SDS011;6145;50.192;10.064;2022-08-21T10:24:44;3.25;;;2.90;;
12163;SDS011;6145;50.192;10.064;2022-08-21T10:27:16;2.67;;;2.47;;
12163;SDS011;6145;50.192;10.064;2022-08-21T10:29:50;2.80;;;2.60;;
12163;SDS011;6145;50.192;10.064;2022-08-21T10:32:37;3.63;;;3.30;;
12163;SDS011;6145;50.192;10.064;2022-08-21T10:35:17;2.58;;;2.38;;
12163;SDS011;6145;50.192;10.064;2022-08-21T10:37:52;3.00;;;2.70;;
12163;SDS011;6145;50.192;10.064;2022-08-21T10:40:31;3.00;;;2.70;;
12163;SDS011;6145;50.192;10.064;2022-08-21T10:43:09;4.40;;;2.80;;
12163;SDS011;6145;50.192;10.064;2022-08-21T10:45:50;3.35;;;3.05;;
12163;SDS011;6145;50.192;10.064;2022-08-21T10:48:25;3.20;;;2.90;;
12163;SDS011;6145;50.192;10.064;2022-08-21T10:50:55;3.35;;;2.53;;
12163;SDS011;6145;50.192;10.064;2022-08-21T10:53:36;2.90;;;2.70;;
12163;SDS011;6145;50.192;10.064;2022-08-21T10:56:14;3.88;;;3.20;;
12163;SDS011;6145;50.192;10.064;2022-08-21T10:58:50;3.22;;;3.03;;
12163;SDS011;6145;50.192;10.064;2022-08-21T11:01:29;3.28;;;2.97;;
12163;SDS011;6145;50.192;10.064;2022-08-21T11:04:04;3.45;;;3.15;;
12163;SDS011;6145;50.192;10.064;2022-08-21T11:06:38;2.83;;;2.63;;
12163;SDS011;6145;50.192;10.064;2022-08-21T11:09:09;3.03;;;2.80;;
12163;SDS011;6145;50.192;10.064;2022-08-21T11:11:40;3.15;;;2.85;;
12163;SDS011;6145;50.192;10.064;2022-08-21T11:14:13;3.38;;;3.08;;
12163;SDS011;6145;50.192;10.064;2022-08-21T11:16:49;3.15;;;2.85;;
12163;SDS011;6145;50.192;10.064;2022-08-21T11:19:24;3.00;;;2.58;;
12163;SDS011;6145;50.192;10.064;2022-08-21T11:21:56;2.72;;;2.53;;
12163;SDS011;6145;50.192;10.064;2022-08-21T11:24:29;3.17;;;2.88;;
12163;SDS011;6145;50.192;10.064;2022-08-21T11:27:01;2.60;;;2.40;;
12163;SDS011;6145;50.192;10.064;2022-08-21T11:29:32;3.15;;;2.92;;
12163;SDS011;6145;50.192;10.064;2022-08-21T11:32:07;2.78;;;2.58;;
12163;SDS011;6145;50.192;10.064;2022-08-21T11:34:53;3.17;;;2.63;;
12163;SDS011;6145;50.192;10.064;2022-08-21T11:37:32;2.90;;;2.60;;
12163;SDS011;6145;50.192;10.064;2022-08-21T11:40:11;2.70;;;2.50;;
12163;SDS011;6145;50.192;10.064;2022-08-21T11:42:48;2.78;;;2.58;;
12163;SDS011;6145;50.192;10.064;2022-08-21T11:45:22;2.60;;;2.40;;
12163;SDS011;6145;50.192;10.064;2022-08-21T11:47:58;2.75;;;2.55;;
12163;SDS011;6145;50.192;10.064;2022-08-21T11:50:30;4.63;;;2.92;;
12163;SDS011;6145;50.192;10.064;2022-08-21T11:52:59;3.22;;;2.70;;
12163;SDS011;6145;50.192;10.064;2022-08-21T11:58:54;3.25;;;2.42;;
12163;SDS011;6145;50.192;10.064;2022-08-21T12:01:25;3.28;;;2.42;;
12163;SDS011;6145;50.192;10.064;2022-08-21T12:04:00;2.58;;;2.38;;
12163;SDS011;6145;50.192;10.064;2022-08-21T12:06:30;2.53;;;2.33;;
12163;SDS011;6145;50.192;10.064;2022-08-21T12:09:04;3.05;;;2.75;;
12163;SDS011;6145;50.192;10.064;2022-08-21T12:11:32;2.55;;;2.35;;
12163;SDS011;6145;50.192;10.064;2022-08-21T12:14:14;2.60;;;2.40;;
12163;SDS011;6145;50.192;10.064;2022-08-21T12:16:43;2.55;;;2.35;;
12163;SDS011;6145;50.192;10.064;2022-08-21T12:19:12;3.03;;;2.42;;
12163;SDS011;6145;50.192;10.064;2022-08-21T12:21:48;3.42;;;2.60;;
12163;SDS011;6145;50.192;10.064;2022-08-21T12:24:19;2.67;;;2.47;;
12163;SDS011;6145;50.192;10.064;2022-08-21T12:27:13;3.22;;;2.72;;
12163;SDS011;6145;50.192;10.064;2022-08-21T12:29:48;2.90;;;2.70;;
12163;SDS011;6145;50.192;10.064;2022-08-21T12:32:23;2.80;;;2.60;;
12163;SDS011;6145;50.192;10.064;2022-08-21T12:34:53;3.88;;;2.63;;
12163;SDS011;6145;50.192;10.064;2022-08-21T12:37:27;2.50;;;2.30;;
12163;SDS011;6145;50.192;10.064;2022-08-21T12:40:10;2.28;;;2.05;;
12163;SDS011;6145;50.192;10.064;2022-08-21T12:42:46;3.10;;;2.60;;
12163;SDS011;6145;50.192;10.064;2022-08-21T12:45:19;2.50;;;2.30;;
12163;SDS011;6145;50.192;10.064;2022-08-21T12:47:50;3.53;;;3.22;;
12163;SDS011;6145;50.192;10.064;2022-08-21T12:50:23;3.45;;;2.65;;
12163;SDS011;6145;50.192;10.064;2022-08-21T12:52:58;2.95;;;2.72;;
12163;SDS011;6145;50.192;10.064;2022-08-21T12:55:32;2.95;;;2.72;;
12163;SDS011;6145;50.192;10.064;2022-08-21T12:58:00;3.17;;;2.88;;
12163;SDS011;6145;50.192;10.064;2022-08-21T13:00:29;3.00;;;2.60;;
12163;SDS011;6145;50.192;10.064;2022-08-21T13:02:56;2.80;;;2.60;;
12163;SDS011;6145;50.192;10.064;2022-08-21T13:05:27;3.28;;;2.63;;
12163;SDS011;6145;50.192;10.064;2022-08-21T13:07:56;3.20;;;3.00;;
12163;SDS011;6145;50.192;10.064;2022-08-21T13:10:25;3.50;;;2.67;;
12163;SDS011;6145;50.192;10.064;2022-08-21T13:12:55;3.40;;;3.10;;
12163;SDS011;6145;50.192;10.064;2022-08-21T13:15:24;3.10;;;2.90;;
12163;SDS011;6145;50.192;10.064;2022-08-21T13:17:55;5.32;;;3.33;;
12163;SDS011;6145;50.192;10.064;2022-08-21T13:20:28;3.25;;;2.78;;
12163;SDS011;6145;50.192;10.064;2022-08-21T13:22:57;3.10;;;2.80;;
12163;SDS011;6145;50.192;10.064;2022-08-21T13:25:25;3.42;;;2.80;;
12163;SDS011;6145;50.192;10.064;2022-08-21T13:27:58;2.38;;;2.17;;
12163;SDS011;6145;50.192;10.064;2022-08-21T13:30:26;2.47;;;2.28;;
12163;SDS011;6145;50.192;10.064;2022-08-21T13:32:56;2.20;;;2.00;;
12163;SDS011;6145;50.192;10.064;2022-08-21T13:35:26;3.15;;;2.53;;
12163;SDS011;6145;50.192;10.064;2022-08-21T13:37:54;2.40;;;2.20;;
12163;SDS011;6145;50.192;10.064;2022-08-21T13:40:23;2.97;;;2.53;;
12163;SDS011;6145;50.192;10.064;2022-08-21T13:42:52;2.95;;;2.67;;
12163;SDS011;6145;50.192;10.064;2022-08-21T13:45:22;2.55;;;2.35;;
12163;SDS011;6145;50.192;10.064;2022-08-21T13:47:51;2.83;;;2.50;;
12163;SDS011;6145;50.192;10.064;2022-08-21T13:50:21;2.63;;;2.42;;
12163;SDS011;6145;50.192;10.064;2022-08-21T13:52:55;3.10;;;2.58;;
12163;SDS011;6145;50.192;10.064;2022-08-21T13:55:25;2.33;;;2.13;;
12163;SDS011;6145;50.192;10.064;2022-08-21T13:58:00;2.38;;;2.20;;
12163;SDS011;6145;50.192;10.064;2022-08-21T14:00:29;2.50;;;2.30;;
12163;SDS011;6145;50.192;10.064;2022-08-21T14:03:01;3.10;;;2.60;;
12163;SDS011;6145;50.192;10.064;2022-08-21T14:05:34;2.30;;;1.92;;
12163;SDS011;6145;50.192;10.064;2022-08-21T14:08:04;4.43;;;2.63;;
12163;SDS011;6145;50.192;10.064;2022-08-21T14:10:35;2.17;;;2.05;;
12163;SDS011;6145;50.192;10.064;2022-08-21T14:13:07;2.60;;;2.40;;
12163;SDS011;6145;50.192;10.064;2022-08-21T14:15:54;2.33;;;2.13;;
12163;SDS011;6145;50.192;10.064;2022-08-21T14:18:22;3.10;;;2.35;;
12163;SDS011;6145;50.192;10.064;2022-08-21T14:20:57;2.65;;;2.38;;
12163;SDS011;6145;50.192;10.064;2022-08-21T14:23:31;2.25;;;2.05;;
12163;SDS011;6145;50.192;10.064;2022-08-21T14:25:58;2.80;;;2.60;;
12163;SDS011;6145;50.192;10.064;2022-08-21T14:28:28;2.50;;;2.30;;
12163;SDS011;6145;50.192;10.064;2022-08-21T14:30:57;2.50;;;2.30;;
12163;SDS011;6145;50.192;10.064;2022-08-21T14:33:36;2.30;;;2.10;;
12163;SDS011;6145;50.192;10.064;2022-08-21T14:36:04;2.50;;;2.10;;
12163;SDS011;6145;50.192;10.064;2022-08-21T14:38:31;2.65;;;2.20;;
12163;SDS011;6145;50.192;10.064;2022-08-21T14:41:03;2.55;;;2.35;;
12163;SDS011;6145;50.192;10.064;2022-08-21T14:43:32;2.42;;;2.20;;
12163;SDS011;6145;50.192;10.064;2022-08-21T14:45:58;2.65;;;2.20;;
12163;SDS011;6145;50.192;10.064;2022-08-21T14:48:26;2.30;;;2.10;;
12163;SDS011;6145;50.192;10.064;2022-08-21T14:50:53;2.45;;;2.25;;
12163;SDS011;6145;50.192;10.064;2022-08-21T14:53:21;2.50;;;2.30;;
12163;SDS011;6145;50.192;10.064;2022-08-21T14:55:48;2.72;;;2.50;;
12163;SDS011;6145;50.192;10.064;2022-08-21T14:58:33;3.20;;;2.38;;
12163;SDS011;6145;50.192;10.064;2022-08-21T15:01:02;3.28;;;2.40;;
12163;SDS011;6145;50.192;10.064;2022-08-21T15:03:30;2.20;;;2.00;;
12163;SDS011;6145;50.192;10.064;2022-08-21T15:05:58;2.72;;;2.47;;
12163;SDS011;6145;50.192;10.064;2022-08-21T15:08:26;3.00;;;2.55;;